Time;durP1;ratioP1;P1;durP2;ratioP2;P2;SDS_P1;SDS_P2;PMS_P1;PMS_P2;Temp;Humidity;BMP_temperature;BMP_pressure;BME280_temperature;BME280_humidity;BME280_pressure;Samples;Min_cycle;Max_cycle;Signal;HPM_P1;HPM_P2
2022/05/26 00:02:14;;;;;;;31.20;10.50;;;;;;;17.94;100.00;94684.81;4945592;28;20031;-88
2022/05/26 00:04:40;;;;;;;21.88;10.40;;;;;;;17.65;100.00;94670.97;4961235;28;20450;-88
2022/05/26 00:07:05;;;;;;;19.80;8.60;;;;;;;17.75;100.00;94664.63;4961635;28;20030;-88
2022/05/26 00:09:31;;;;;;;25.65;9.07;;;;;;;17.84;100.00;94672.59;4945634;28;20031;-88
2022/05/26 00:11:56;;;;;;;19.42;10.10;;;;;;;17.13;100.00;94668.03;4945520;28;20340;-89
2022/05/26 00:14:22;;;;;;;19.05;9.63;;;;;;;17.24;100.00;94672.75;4943429;28;20022;-88
2022/05/26 00:16:47;;;;;;;20.25;9.48;;;;;;;17.22;100.00;94679.47;4932928;28;20035;-88
2022/05/26 00:19:14;;;;;;;18.38;9.10;;;;;;;17.29;100.00;94682.44;4939709;28;20050;-88
2022/05/26 00:21:40;;;;;;;16.05;8.93;;;;;;;17.35;100.00;94686.53;4956707;28;20616;-88
2022/05/26 00:24:06;;;;;;;22.20;10.10;;;;;;;17.36;100.00;94690.75;4943671;28;20027;-88
2022/05/26 00:26:32;;;;;;;30.92;10.30;;;;;;;17.49;100.00;94686.47;4956302;28;20043;-88
2022/05/26 00:28:57;;;;;;;24.85;10.02;;;;;;;16.99;100.00;94692.69;4957833;28;20034;-88
2022/05/26 00:31:24;;;;;;;22.63;10.80;;;;;;;17.15;100.00;94682.53;4926244;29;20035;-88
2022/05/26 00:33:49;;;;;;;17.35;8.98;;;;;;;17.30;100.00;94685.91;4926226;29;20027;-88
2022/05/26 00:36:16;;;;;;;21.67;10.27;;;;;;;17.42;100.00;94686.09;4926071;29;20314;-88
2022/05/26 00:38:42;;;;;;;19.35;9.23;;;;;;;17.43;100.00;94690.34;4941750;29;20082;-88
2022/05/26 00:41:11;;;;;;;22.58;10.45;;;;;;;17.22;100.00;94692.69;4926381;29;20429;-89
2022/05/26 00:43:42;;;;;;;25.80;10.65;;;;;;;16.82;100.00;94698.56;4941410;29;20063;-88
2022/05/26 00:46:17;;;;;;;27.90;11.07;;;;;;;16.96;100.00;94699.31;4926137;29;20027;-88
2022/05/26 00:48:47;;;;;;;22.27;10.57;;;;;;;17.03;100.00;94693.63;4941451;29;20078;-89
2022/05/26 00:51:15;;;;;;;27.08;11.20;;;;;;;17.08;100.00;94693.53;4926072;29;20031;-88
2022/05/26 00:53:46;;;;;;;22.65;10.18;;;;;;;17.00;100.00;94694.25;4926373;29;20059;-88
2022/05/26 00:56:18;;;;;;;22.42;10.20;;;;;;;17.24;100.00;94695.81;4941902;29;20034;-89
2022/05/26 00:58:47;;;;;;;23.93;10.80;;;;;;;17.10;100.00;94704.59;4926279;29;20117;-88
2022/05/26 01:01:13;;;;;;;24.48;9.55;;;;;;;17.46;100.00;94696.88;4925915;29;20042;-88
2022/05/26 01:03:44;;;;;;;19.88;8.40;;;;;;;17.07;100.00;94702.56;4925758;29;20425;-89
2022/05/26 01:06:20;;;;;;;19.00;8.27;;;;;;;17.08;100.00;94704.13;4926030;29;20030;-88
2022/05/26 01:08:57;;;;;;;31.05;10.80;;;;;;;16.65;100.00;94705.28;4959150;29;20121;-88
2022/05/26 01:11:25;;;;;;;16.35;11.65;;;;;;;16.47;100.00;94709.63;4942007;29;20386;-88
2022/05/26 01:13:55;;;;;;;19.10;10.52;;;;;;;16.57;100.00;94699.91;4925720;29;20074;-88
2022/05/26 01:16:38;;;;;;;26.85;11.25;;;;;;;16.66;100.00;94703.44;4926218;29;20428;-89
2022/05/26 01:19:32;;;;;;;20.60;10.77;;;;;;;16.85;100.00;94699.84;4925871;29;20027;-88
2022/05/26 01:22:02;;;;;;;24.55;11.38;;;;;;;16.88;100.00;94700.03;4962244;29;20340;-89
2022/05/26 01:24:46;;;;;;;25.02;12.23;;;;;;;17.03;100.00;94703.47;4929258;29;20037;-89
2022/05/26 01:27:26;;;;;;;24.50;12.75;;;;;;;17.00;100.00;94704.03;4945422;29;20031;-88
2022/05/26 01:30:09;;;;;;;37.17;15.82;;;;;;;17.02;100.00;94707.94;4945134;29;20023;-88
2022/05/26 01:32:44;;;;;;;34.83;13.65;;;;;;;17.19;100.00;94707.31;4961876;29;20083;-88
2022/05/26 01:35:13;;;;;;;27.45;13.75;;;;;;;17.10;100.00;94712.53;4929160;29;20114;-88
2022/05/26 01:38:16;;;;;;;21.77;8.38;;;;;;;16.57;100.00;94707.84;4944529;29;20110;-88
2022/05/26 01:41:26;;;;;;;40.00;14.38;;;;;;;16.61;100.00;94706.16;4944897;29;20427;-89
2022/05/26 01:44:07;;;;;;;31.42;17.15;;;;;;;16.46;100.00;94712.56;4928934;29;20094;-89
2022/05/26 01:46:40;;;;;;;31.13;14.77;;;;;;;16.61;100.00;94720.19;4944791;29;20093;-89
2022/05/26 01:49:14;;;;;;;27.90;14.95;;;;;;;16.72;100.00;94717.34;4944921;29;20035;-88
2022/05/26 01:51:43;;;;;;;33.92;17.23;;;;;;;16.31;100.00;94714.44;4944584;29;20031;-89
2022/05/26 01:54:17;;;;;;;32.03;15.43;;;;;;;16.14;100.00;94720.31;4929115;29;20033;-89
2022/05/26 01:56:53;;;;;;;34.75;16.40;;;;;;;15.93;100.00;94720.72;4929227;29;20033;-89
2022/05/26 01:59:26;;;;;;;32.05;16.95;;;;;;;15.81;100.00;94723.00;4961861;29;20031;-88
2022/05/26 02:02:02;;;;;;;29.25;14.57;;;;;;;16.14;100.00;94722.97;4928759;29;20039;-89
2022/05/26 02:04:32;;;;;;;28.25;14.25;;;;;;;16.33;100.00;94722.84;4944526;29;20027;-88
2022/05/26 02:07:12;;;;;;;28.38;15.93;;;;;;;16.04;100.00;94723.94;4928665;29;20428;-88
2022/05/26 02:09:41;;;;;;;25.17;12.32;;;;;;;16.05;100.00;94730.00;4928340;29;20086;-89
2022/05/26 02:12:46;;;;;;;25.55;15.88;;;;;;;15.90;100.00;94729.19;4929080;29;20027;-89
2022/05/26 02:15:16;;;;;;;27.25;16.10;;;;;;;16.14;100.00;94727.44;4867853;29;20033;-88
2022/05/26 02:17:44;;;;;;;33.05;16.52;;;;;;;16.28;100.00;94725.59;4852346;29;20145;-89
2022/05/26 02:20:26;;;;;;;32.17;16.48;;;;;;;16.41;100.00;94726.69;4916665;29;20353;-88
2022/05/26 02:22:55;;;;;;;27.73;16.10;;;;;;;16.55;100.00;94721.34;4943984;29;20117;-89
2022/05/26 02:25:23;;;;;;;27.58;16.63;;;;;;;16.70;100.00;94711.53;4943710;29;20129;-88
2022/05/26 02:27:52;;;;;;;30.95;17.27;;;;;;;16.73;100.00;94717.03;4928007;29;20125;-88
2022/05/26 02:30:21;;;;;;;31.13;17.17;;;;;;;16.85;100.00;94710.44;4944237;28;20023;-88
2022/05/26 02:32:48;;;;;;;29.50;17.08;;;;;;;16.90;100.00;94712.97;4928868;29;20034;-88
2022/05/26 02:35:28;;;;;;;38.80;18.38;;;;;;;17.04;100.00;94711.06;4943910;29;20058;-88
2022/05/26 02:37:57;;;;;;;33.63;17.02;;;;;;;17.05;100.00;94703.94;4928341;29;20046;-89
2022/05/26 02:40:22;;;;;;;26.58;15.60;;;;;;;17.09;100.00;94707.53;4928031;29;20031;-88
2022/05/26 02:42:54;;;;;;;28.70;16.55;;;;;;;17.13;100.00;94711.13;4961965;28;20039;-88
2022/05/26 02:45:35;;;;;;;29.13;16.92;;;;;;;16.83;100.00;94721.31;4938745;29;20034;-87
2022/05/26 02:48:37;;;;;;;31.33;17.92;;;;;;;16.33;100.00;94724.72;4961423;28;20392;-88
2022/05/26 02:51:28;;;;;;;36.15;18.95;;;;;;;16.20;100.00;94729.69;4908823;28;20147;-88
2022/05/26 02:54:10;;;;;;;39.38;18.70;;;;;;;16.15;100.00;94721.09;4941398;28;20042;-87
2022/05/26 02:56:48;;;;;;;33.03;18.55;;;;;;;16.11;100.00;94724.31;4933838;29;20035;-87
2022/05/26 02:59:47;;;;;;;35.13;17.30;;;;;;;16.51;100.00;94726.47;4928040;29;20027;-87
2022/05/26 03:02:24;;;;;;;35.28;17.10;;;;;;;16.43;100.00;94721.88;4960502;29;20090;-87
2022/05/26 03:05:19;;;;;;;30.17;15.98;;;;;;;16.60;100.00;94728.41;4943714;29;20051;-88
2022/05/26 03:07:48;;;;;;;39.22;17.27;;;;;;;17.05;100.00;94728.53;4950213;28;20051;-87
2022/05/26 03:10:15;;;;;;;25.98;16.35;;;;;;;17.01;100.00;94727.56;4943591;29;20035;-87
2022/05/26 03:13:09;;;;;;;27.27;15.85;;;;;;;17.12;100.00;94732.63;4959836;29;20113;-88
2022/05/26 03:15:35;;;;;;;27.23;14.43;;;;;;;17.21;100.00;94736.91;4939682;29;20046;-87
2022/05/26 03:18:01;;;;;;;26.83;14.55;;;;;;;17.44;100.00;94728.97;4943204;29;20081;-87
2022/05/26 03:20:27;;;;;;;25.85;15.55;;;;;;;17.30;100.00;94744.91;4943499;29;20450;-87
2022/05/26 03:22:55;;;;;;;40.33;17.52;;;;;;;16.84;100.00;94738.75;4943689;29;20034;-87
2022/05/26 03:25:20;;;;;;;37.75;16.95;;;;;;;16.70;100.00;94735.34;4958549;29;20360;-88
2022/05/26 03:27:46;;;;;;;31.63;16.27;;;;;;;16.82;100.00;94736.41;4927464;29;20034;-87
2022/05/26 03:30:12;;;;;;;29.58;13.25;;;;;;;16.97;100.00;94739.81;4942533;29;20027;-87
2022/05/26 03:32:37;;;;;;;29.88;15.43;;;;;;;16.73;100.00;94748.00;4960301;29;20327;-88
2022/05/26 03:43:16;;;;;;;32.08;15.10;;;;;;;16.14;100.00;94754.69;4958411;28;20070;-87
2022/05/26 03:45:42;;;;;;;27.65;15.75;;;;;;;16.04;100.00;94750.38;4942340;29;20058;-88
2022/05/26 03:48:08;;;;;;;27.90;15.10;;;;;;;16.39;100.00;94755.28;4959893;29;20394;-88
2022/05/26 03:50:34;;;;;;;25.48;12.95;;;;;;;16.80;100.00;94758.94;4959869;29;20035;-87
2022/05/26 03:53:00;;;;;;;23.85;12.75;;;;;;;16.36;100.00;94761.94;4942701;29;20121;-88
2022/05/26 03:55:25;;;;;;;28.48;12.90;;;;;;;16.19;100.00;94761.72;4959454;29;20023;-88
2022/05/26 03:57:51;;;;;;;22.63;11.50;;;;;;;16.68;100.00;94762.88;4926725;29;20027;-87
2022/05/26 04:00:21;;;;;;;22.88;11.27;;;;;;;16.98;100.00;94759.91;4944064;29;20325;-87
2022/05/26 04:02:47;;;;;;;21.35;11.52;;;;;;;17.27;100.00;94765.91;4926938;29;20030;-87
2022/05/26 04:05:13;;;;;;;22.88;11.50;;;;;;;17.31;100.00;94761.59;4959248;29;20333;-88
2022/05/26 04:07:38;;;;;;;25.40;11.23;;;;;;;17.40;100.00;94764.31;4926100;29;20031;-88
2022/05/26 04:10:06;;;;;;;22.95;10.82;;;;;;;17.37;100.00;94763.03;4942275;29;20348;-88
2022/05/26 04:12:32;;;;;;;24.15;11.55;;;;;;;17.44;100.00;94770.56;4941879;29;20039;-87
2022/05/26 04:14:58;;;;;;;20.50;11.77;;;;;;;17.62;100.00;94764.28;4926420;29;20027;-87
2022/05/26 04:17:24;;;;;;;25.92;12.45;;;;;;;17.04;100.00;94763.25;4942103;29;20318;-87
2022/05/26 04:19:49;;;;;;;20.48;10.98;;;;;;;17.08;100.00;94775.59;4942033;29;20035;-87
2022/05/26 04:22:23;;;;;;;24.77;11.77;;;;;;;17.47;100.00;94775.25;4941854;29;20035;-87
2022/05/26 04:24:58;;;;;;;22.67;11.82;;;;;;;17.50;100.00;94777.28;4943031;29;20058;-87
2022/05/26 04:27:28;;;;;;;25.42;11.50;;;;;;;17.61;100.00;94786.56;4926239;29;20095;-88
2022/05/26 04:29:53;;;;;;;26.00;10.55;;;;;;;17.16;100.00;94787.34;4941531;29;20531;-88
2022/05/26 04:32:26;;;;;;;25.77;10.93;;;;;;;16.66;100.00;94791.50;4926356;29;20212;-89
2022/05/26 04:34:52;;;;;;;25.17;11.97;;;;;;;17.03;100.00;94796.88;4926397;29;20026;-89
2022/05/26 04:37:18;;;;;;;22.70;11.82;;;;;;;17.34;100.00;94798.84;4926158;29;20031;-88
2022/05/26 04:39:45;;;;;;;22.20;11.98;;;;;;;17.69;100.00;94795.66;4941471;29;20130;-89
2022/05/26 04:42:10;;;;;;;21.85;11.13;;;;;;;17.84;100.00;94797.16;4941943;29;20039;-88
2022/05/26 04:44:38;;;;;;;20.20;11.57;;;;;;;18.03;100.00;94799.66;4941556;29;20053;-88
2022/05/26 04:47:12;;;;;;;20.80;11.63;;;;;;;18.08;100.00;94804.81;4941701;29;20027;-93
2022/05/26 04:49:38;;;;;;;23.58;11.35;;;;;;;18.19;100.00;94809.88;4941231;28;20037;-88
2022/05/26 04:52:09;;;;;;;22.27;10.02;;;;;;;18.27;100.00;94808.34;4956789;29;20429;-88
2022/05/26 04:54:37;;;;;;;17.02;11.20;;;;;;;18.32;100.00;94816.94;4938038;28;20440;-88
2022/05/26 04:57:05;;;;;;;19.88;10.52;;;;;;;17.85;100.00;94816.50;4964703;28;20026;-88
2022/05/26 04:59:31;;;;;;;22.48;10.82;;;;;;;17.57;100.00;94825.34;4964759;28;20079;-89
2022/05/26 05:01:57;;;;;;;14.90;9.25;;;;;;;17.76;100.00;94822.53;4982053;28;20054;-88
2022/05/26 05:04:24;;;;;;;17.55;9.43;;;;;;;18.23;100.00;94819.56;4964270;28;20089;-88
2022/05/26 05:06:50;;;;;;;20.08;9.52;;;;;;;18.57;100.00;94830.59;4964518;28;20037;-87
2022/05/26 05:09:15;;;;;;;19.52;10.73;;;;;;;18.75;100.00;94831.47;4964677;28;20022;-88
2022/05/26 05:11:50;;;;;;;23.42;10.50;;;;;;;18.42;100.00;94833.66;4948919;28;20026;-89
2022/05/26 05:14:16;;;;;;;22.70;11.20;;;;;;;18.00;100.00;94839.97;4980805;28;20429;-88
2022/05/26 05:16:43;;;;;;;19.23;9.77;;;;;;;17.90;100.00;94845.53;4964802;28;20038;-88
2022/05/26 05:19:10;;;;;;;19.35;9.85;;;;;;;18.53;100.00;94839.50;4964496;28;20113;-88
2022/05/26 05:21:41;;;;;;;16.58;7.85;;;;;;;18.95;100.00;94850.59;4964323;28;20060;-88
2022/05/26 05:24:17;;;;;;;24.88;9.85;;;;;;;18.39;100.00;94851.00;4948737;28;20433;-88
2022/05/26 05:26:45;;;;;;;19.92;8.07;;;;;;;17.77;100.00;94855.91;4948169;28;20031;-88
2022/05/26 05:29:12;;;;;;;25.38;9.27;;;;;;;17.75;100.00;94854.63;4964530;28;20033;-87
2022/05/26 05:31:48;;;;;;;18.05;7.88;;;;;;;17.69;100.00;94853.19;4964276;28;20027;-88
2022/05/26 05:34:17;;;;;;;14.25;8.32;;;;;;;18.51;100.00;94851.22;4964084;28;20046;-87
2022/05/26 05:36:43;;;;;;;18.30;9.15;;;;;;;19.01;100.00;94851.22;4964681;28;20038;-87
2022/05/26 05:39:08;;;;;;;16.83;9.10;;;;;;;19.59;100.00;94862.56;4964656;28;20034;-87
2022/05/26 05:41:34;;;;;;;18.92;9.70;;;;;;;19.99;100.00;94869.59;4981526;28;20050;-87
2022/05/26 05:44:01;;;;;;;16.75;8.48;;;;;;;20.30;100.00;94862.50;4947742;28;20043;-87
2022/05/26 05:46:33;;;;;;;20.20;9.00;;;;;;;20.57;100.00;94879.19;4964013;28;20037;-88
2022/05/26 05:49:01;;;;;;;15.27;8.90;;;;;;;20.79;100.00;94877.38;4965209;28;20055;-88
2022/05/26 05:51:26;;;;;;;16.48;8.38;;;;;;;20.80;100.00;94868.28;4964261;28;20045;-88
2022/05/26 05:53:52;;;;;;;18.58;7.63;;;;;;;19.71;100.00;94875.22;4980983;28;20027;-88
2022/05/26 05:56:17;;;;;;;17.58;9.05;;;;;;;20.44;100.00;94871.09;4963976;28;20081;-88
2022/05/26 05:58:42;;;;;;;19.13;8.95;;;;;;;20.54;100.00;94874.50;4981227;28;20023;-88
2022/05/26 06:01:08;;;;;;;22.15;9.20;;;;;;;20.79;100.00;94869.38;4963669;28;20038;-87
2022/05/26 06:03:35;;;;;;;20.13;8.30;;;;;;;20.93;100.00;94872.63;4964052;28;20428;-87
2022/05/26 06:06:04;;;;;;;14.18;8.52;;;;;;;21.12;100.00;94872.22;4947414;28;20043;-87
2022/05/26 06:08:30;;;;;;;23.15;8.80;;;;;;;21.21;100.00;94868.75;4947610;28;20034;-87
2022/05/26 06:10:56;;;;;;;16.48;8.60;;;;;;;20.93;100.00;94869.19;4981001;28;20046;-87
2022/05/26 06:13:21;;;;;;;14.35;8.05;;;;;;;21.14;100.00;94871.91;4947699;28;20026;-87
2022/05/26 06:15:47;;;;;;;19.27;8.65;;;;;;;20.84;100.00;94877.25;4980866;28;20399;-87
2022/05/26 06:18:13;;;;;;;15.48;7.82;;;;;;;20.96;100.00;94885.34;4963588;28;20031;-88
2022/05/26 06:20:40;;;;;;;15.55;8.25;;;;;;;20.66;100.00;94895.13;4963352;28;20042;-88
2022/05/26 06:23:06;;;;;;;21.58;8.63;;;;;;;20.92;100.00;94896.94;4963770;28;20030;-87
2022/05/26 06:25:31;;;;;;;19.20;9.02;;;;;;;20.90;100.00;94890.06;4947538;28;20027;-87
2022/05/26 06:30:41;;;;;;;22.88;8.77;;;;;;;20.12;100.00;94894.47;4965840;28;20081;-88
2022/05/26 06:38:39;;;;;;;20.60;9.98;;;;;;;20.80;100.00;94890.38;4965868;28;20045;-87
2022/05/26 06:43:52;;;;;;;16.75;9.30;;;;;;;21.16;100.00;94896.34;4965453;28;20061;-88
2022/05/26 06:46:18;;;;;;;17.23;10.15;;;;;;;20.99;100.00;94898.00;4963056;28;20029;-88
2022/05/26 06:48:44;;;;;;;20.13;9.63;;;;;;;21.60;100.00;94904.09;4963396;28;20034;-87
2022/05/26 06:51:10;;;;;;;16.73;9.90;;;;;;;21.83;100.00;94909.91;4947145;28;20034;-87
2022/05/26 06:53:36;;;;;;;20.88;10.00;;;;;;;21.98;100.00;94913.09;4963009;28;20042;-88
2022/05/26 06:56:01;;;;;;;18.73;10.02;;;;;;;22.38;100.00;94915.22;4980320;28;20037;-87
2022/05/26 06:58:27;;;;;;;14.10;8.65;;;;;;;22.37;100.00;94908.31;4980145;28;20027;-88
2022/05/26 07:00:53;;;;;;;21.83;8.23;;;;;;;22.75;100.00;94914.56;4946934;28;20038;-87
2022/05/26 07:03:18;;;;;;;19.25;9.32;;;;;;;21.61;100.00;94913.66;4962992;28;20060;-88
2022/05/26 07:05:44;;;;;;;16.23;8.88;;;;;;;22.37;100.00;94915.56;4962519;28;20085;-88
2022/05/26 07:08:09;;;;;;;17.75;8.63;;;;;;;22.48;100.00;94910.59;4946720;28;20037;-88
2022/05/26 07:10:35;;;;;;;14.23;7.30;;;;;;;22.54;100.00;94911.97;4946580;28;20074;-88
2022/05/26 07:13:01;;;;;;;15.95;8.25;;;;;;;21.58;100.00;94914.28;4980078;28;20313;-88
2022/05/26 07:15:27;;;;;;;15.20;8.32;;;;;;;22.16;100.00;94914.47;4962670;28;20420;-88
2022/05/26 07:17:53;;;;;;;26.98;11.07;;;;;;;21.11;100.00;94902.63;4945877;28;20037;-88
2022/05/26 07:20:19;;;;;;;16.60;9.63;;;;;;;20.91;100.00;94898.81;4962341;28;20128;-88
2022/05/26 07:22:44;;;;;;;14.55;8.20;;;;;;;22.45;100.00;94902.09;4962302;28;20035;-88
2022/05/26 07:25:10;;;;;;;19.42;9.98;;;;;;;23.14;100.00;94901.66;4962234;28;20384;-87
2022/05/26 07:27:36;;;;;;;22.20;9.45;;;;;;;24.04;100.00;94901.97;4962194;28;20041;-87
2022/05/26 07:30:03;;;;;;;18.98;11.07;;;;;;;24.16;100.00;94909.19;4962387;28;20027;-87
2022/05/26 07:32:28;;;;;;;22.10;11.23;;;;;;;24.56;100.00;94909.06;4946093;28;20035;-87
2022/05/26 07:34:53;;;;;;;20.38;10.23;;;;;;;24.69;100.00;94907.13;4961564;28;20188;-88
2022/05/26 07:42:47;;;;;;;25.67;11.00;;;;;;;23.67;100.00;94905.50;4964530;28;20459;-87
2022/05/26 07:45:13;;;;;;;28.52;12.73;;;;;;;23.72;100.00;94892.66;4961706;28;20117;-87
2022/05/26 07:47:39;;;;;;;19.55;9.68;;;;;;;25.11;100.00;94888.97;4962141;28;20058;-87
2022/05/26 07:50:06;;;;;;;21.00;10.52;;;;;;;25.15;100.00;94889.81;4961925;28;20030;-87
2022/05/26 07:52:31;;;;;;;21.58;10.65;;;;;;;24.65;100.00;94892.06;4961825;28;20038;-87
2022/05/26 07:54:57;;;;;;;18.35;10.60;;;;;;;23.56;100.00;94881.13;4961816;28;20429;-87
2022/05/26 07:57:25;;;;;;;22.38;8.93;;;;;;;23.38;100.00;94878.72;4961881;28;20045;-87
2022/05/26 07:59:51;;;;;;;18.98;8.73;;;;;;;23.28;100.00;94879.16;4945794;28;20034;-87
2022/05/26 08:02:17;;;;;;;21.75;8.73;;;;;;;22.98;100.00;94884.72;4945471;28;20031;-87
2022/05/26 08:04:44;;;;;;;21.48;7.38;;;;;;;23.30;100.00;94885.75;4961667;28;20054;-88
2022/05/26 08:07:10;;;;;;;14.45;6.95;;;;;;;23.56;100.00;94886.47;4961758;28;20046;-88
2022/05/26 08:09:37;;;;;;;18.95;7.63;;;;;;;23.43;100.00;94881.16;4961790;28;20062;-87
2022/05/26 08:12:05;;;;;;;18.92;7.65;;;;;;;23.66;100.00;94882.53;4961729;28;20038;-88
2022/05/26 08:14:30;;;;;;;26.25;9.52;;;;;;;22.73;100.00;94888.16;4961022;28;20141;-88
2022/05/26 08:16:56;;;;;;;18.33;8.50;;;;;;;23.12;100.00;94887.06;4979036;28;20110;-87
2022/05/26 08:19:21;;;;;;;16.00;9.23;;;;;;;22.97;100.00;94897.31;4961327;28;20117;-88
2022/05/26 08:21:48;;;;;;;17.63;8.75;;;;;;;22.96;100.00;94903.78;4961518;28;20037;-87
2022/05/26 08:24:13;;;;;;;21.35;8.10;;;;;;;23.26;100.00;94906.25;4978054;28;20038;-88
2022/05/26 08:26:39;;;;;;;26.23;9.07;;;;;;;23.39;100.00;94903.56;4978562;28;20360;-87
2022/05/26 08:29:04;;;;;;;33.88;10.15;;;;;;;23.25;100.00;94895.84;4978570;28;20045;-87
2022/05/26 08:31:30;;;;;;;19.02;8.25;;;;;;;24.06;100.00;94895.16;4961178;28;20041;-88
2022/05/26 08:33:55;;;;;;;20.50;8.25;;;;;;;23.74;100.00;94900.38;4945149;28;20030;-87
2022/05/26 08:36:26;;;;;;;14.15;8.00;;;;;;;23.92;100.00;94900.09;4978660;28;20038;-88
2022/05/26 08:38:53;;;;;;;15.63;7.55;;;;;;;23.39;100.00;94912.34;4945869;28;20033;-87
2022/05/26 08:41:24;;;;;;;16.10;7.25;;;;;;;23.44;100.00;94916.69;4944923;28;20425;-88
2022/05/26 08:44:03;;;;;;;14.30;6.57;;;;;;;23.34;100.00;94917.16;4961066;28;20038;-88
2022/05/26 08:47:01;;;;;;;22.88;7.40;;;;;;;21.78;100.00;94919.97;4961342;28;20512;-88
2022/05/26 08:49:35;;;;;;;19.58;8.05;;;;;;;21.82;100.00;94923.56;4953027;28;20039;-88
2022/05/26 08:52:10;;;;;;;21.52;7.32;;;;;;;23.09;100.00;94922.47;4961241;28;20414;-88
2022/05/26 08:54:38;;;;;;;17.33;7.30;;;;;;;22.03;100.00;94927.00;4960595;28;20054;-88
2022/05/26 08:57:08;;;;;;;20.75;7.78;;;;;;;22.67;100.00;94926.09;4960758;28;20038;-87
2022/05/26 08:59:41;;;;;;;17.35;7.72;;;;;;;23.29;100.00;94921.63;4960755;28;20030;-88
2022/05/26 09:02:15;;;;;;;25.02;7.90;;;;;;;23.31;100.00;94923.94;4960528;28;20030;-88
2022/05/26 09:04:45;;;;;;;16.85;7.82;;;;;;;22.31;100.00;94939.00;4977759;28;20405;-88
2022/05/26 09:12:55;;;;;;;20.23;8.52;;;;;;;22.34;100.00;94957.00;4963353;28;20092;-88
2022/05/26 09:15:21;;;;;;;20.88;10.50;;;;;;;22.50;100.00;94959.09;4961706;28;20035;-87
2022/05/26 09:17:47;;;;;;;22.05;9.13;;;;;;;22.42;100.00;94969.50;4960553;28;20030;-88
2022/05/26 09:20:38;;;;;;;27.77;10.95;;;;;;;21.28;100.00;94959.59;4978084;28;20340;-88
2022/05/26 09:23:11;;;;;;;19.02;8.57;;;;;;;21.93;100.00;94969.28;4961182;28;20058;-88
2022/05/26 09:25:47;;;;;;;18.02;9.77;;;;;;;21.88;100.00;94967.59;4944561;28;20043;-88
2022/05/26 09:28:25;;;;;;;17.35;8.95;;;;;;;21.58;100.00;94957.72;4944273;28;20046;-88
2022/05/26 09:30:50;;;;;;;18.00;8.23;;;;;;;21.94;100.00;94965.50;4960852;28;20062;-88
2022/05/26 09:33:27;;;;;;;24.13;11.60;;;;;;;21.31;100.00;94970.41;4960806;28;20030;-88
2022/05/26 09:35:52;;;;;;;25.65;13.27;;;;;;;21.62;100.00;94979.19;4944746;28;20038;-88
2022/05/26 09:38:19;;;;;;;26.25;11.40;;;;;;;;;;4960401;28;20035;-88
2022/05/26 09:40:48;;;;;;;23.83;11.65;;;;;;;21.98;100.00;94987.78;4978418;28;20046;-88
2022/05/26 09:43:17;;;;;;;27.52;12.85;;;;;;;20.84;100.00;94986.41;4964763;28;20444;-88
2022/05/26 09:45:45;;;;;;;27.50;13.75;;;;;;;20.59;100.00;94994.09;4964095;28;20034;-88
2022/05/26 09:48:17;;;;;;;29.83;14.23;;;;;;;20.33;100.00;94989.59;4964239;28;20031;-88
2022/05/26 09:50:48;;;;;;;28.05;15.18;;;;;;;20.17;100.00;94995.38;4964148;28;20037;-88
2022/05/26 09:53:28;;;;;;;22.75;13.60;;;;;;;20.03;100.00;94992.09;4947781;28;20530;-88
2022/05/26 09:55:55;;;;;;;25.60;14.35;;;;;;;20.16;100.00;94993.81;4963740;28;20038;-88
2022/05/26 09:58:34;;;;;;;29.75;17.92;;;;;;;20.16;100.00;94999.16;4963985;28;20027;-88
2022/05/26 10:01:28;;;;;;;29.58;16.85;;;;;;;19.88;100.00;95001.31;4963621;28;20026;-88
2022/05/26 10:04:12;;;;;;;40.65;20.00;;;;;;;20.00;100.00;95009.44;4978177;28;20113;-88
2022/05/26 10:06:47;;;;;;;28.45;17.27;;;;;;;20.24;100.00;95013.53;4963797;28;20026;-88
2022/05/26 10:09:40;;;;;;;42.15;17.35;;;;;;;20.61;100.00;95018.53;4980837;28;20034;-88
2022/05/26 10:12:18;;;;;;;23.15;13.77;;;;;;;20.77;100.00;95011.59;4963381;28;20066;-87
2022/05/26 10:14:46;;;;;;;30.08;15.30;;;;;;;20.71;100.00;95025.41;4980375;28;20450;-87
2022/05/26 10:17:29;;;;;;;28.48;17.40;;;;;;;20.79;100.00;95029.94;4963356;28;20075;-88
2022/05/26 10:20:08;;;;;;;28.23;17.33;;;;;;;;;;4980422;28;20511;-87
2022/05/26 10:22:50;;;;;;;39.38;21.40;;;;;;;20.44;100.00;95028.09;4963496;28;20034;-87
2022/05/26 10:25:57;;;;;;;32.42;17.95;;;;;;;20.27;100.00;95030.75;4963517;28;20042;-87
2022/05/26 10:28:52;;;;;;;39.47;20.73;;;;;;;20.49;100.00;95033.25;4947667;28;20173;-88
2022/05/26 10:31:51;;;;;;;34.03;17.38;;;;;;;20.92;100.00;95036.19;4947374;28;20073;-88
2022/05/26 10:35:05;;;;;;;27.60;17.35;;;;;;;21.23;100.00;95029.88;4976264;28;20030;-88
2022/05/26 10:37:40;;;;;;;44.28;23.40;;;;;;;20.95;100.00;95030.25;4959554;28;20102;-89
2022/05/26 10:40:15;;;;;;;40.28;21.92;;;;;;;20.85;100.00;95036.69;4957504;28;20027;-88
2022/05/26 10:42:57;;;;;;;29.50;18.83;;;;;;;21.29;100.00;95039.22;4943608;29;20070;-89
2022/05/26 10:45:40;;;;;;;42.35;23.00;;;;;;;22.02;100.00;95037.50;4943545;29;20433;-89
2022/05/26 10:48:16;;;;;;;46.60;22.90;;;;;;;22.67;100.00;95031.06;4927983;29;20528;-89
2022/05/26 10:50:51;;;;;;;44.53;26.45;;;;;;;22.87;100.00;95024.06;4928325;29;20035;-89
2022/05/26 10:53:46;;;;;;;49.42;27.00;;;;;;;23.11;100.00;95033.25;4927244;29;20033;-88
2022/05/26 10:56:28;;;;;;;48.72;26.55;;;;;;;23.61;100.00;95025.34;4923067;29;20456;-88
2022/05/26 10:59:01;;;;;;;47.90;24.65;;;;;;;23.37;100.00;95032.22;4928274;29;20031;-88
2022/05/26 11:01:33;;;;;;;43.60;25.60;;;;;;;23.12;100.00;95024.13;4943532;29;20023;-88
2022/05/26 11:04:14;;;;;;;38.17;22.90;;;;;;;22.67;100.00;95017.69;4927736;29;20433;-87
2022/05/26 11:06:40;;;;;;;48.83;25.13;;;;;;;22.84;100.00;95018.63;4927702;29;20036;-87
2022/05/26 11:09:39;;;;;;;46.63;23.75;;;;;;;22.76;100.00;95014.16;4929546;28;20039;-88
2022/05/26 11:12:09;;;;;;;41.55;25.48;;;;;;;22.35;100.00;95008.53;4946416;28;20026;-88
2022/05/26 11:17:44;;;;;;;36.63;23.63;;;;;;;23.92;100.00;95004.44;4979658;28;20033;-88
2022/05/26 11:20:14;;;;;;;39.60;26.48;;;;;;;24.27;100.00;95012.75;4962953;28;20038;-88
2022/05/26 11:22:45;;;;;;;48.63;28.25;;;;;;;23.83;100.00;95005.34;4962609;28;20043;-88
2022/05/26 11:25:15;;;;;;;44.83;26.25;;;;;;;22.91;100.00;95013.50;4962536;28;20031;-88
2022/05/26 11:27:45;;;;;;;43.30;26.27;;;;;;;22.39;100.00;95018.22;4962489;28;20038;-89
2022/05/26 11:38:36;;;;;;;36.75;22.85;;;;;;;23.62;100.00;95013.50;4964523;28;20084;-88
2022/05/26 11:41:01;;;;;;;37.88;24.42;;;;;;;22.96;100.00;95016.00;4945809;28;20329;-88
2022/05/26 11:43:46;;;;;;;41.67;24.73;;;;;;;23.66;100.00;95011.72;4978899;28;20046;-88
2022/05/26 11:46:45;;;;;;;52.78;32.15;;;;;;;22.55;100.00;95010.41;4945479;28;20129;-88
2022/05/26 11:49:42;;;;;;;50.28;30.20;;;;;;;22.69;100.00;95004.00;4962070;28;20081;-88
2022/05/26 11:52:11;;;;;;;41.03;27.38;;;;;;;23.26;100.00;95001.66;4979217;28;20026;-89
2022/05/26 11:55:01;;;;;;;49.33;31.17;;;;;;;23.66;100.00;95002.91;4962230;28;20447;-89
2022/05/26 11:57:40;;;;;;;55.55;29.35;;;;;;;23.25;100.00;94998.22;4979241;28;20074;-88
2022/05/26 12:00:15;;;;;;;42.95;25.15;;;;;;;24.72;100.00;94994.03;4962198;28;20027;-89
2022/05/26 12:02:42;;;;;;;46.45;27.35;;;;;;;24.28;100.00;94989.44;4961410;28;20570;-88
2022/05/26 12:05:29;;;;;;;42.78;27.67;;;;;;;25.26;100.00;94991.94;4961063;28;20034;-89
2022/05/26 12:08:00;;;;;;;39.72;22.75;;;;;;;26.74;100.00;94991.63;4978775;28;20058;-89
2022/05/26 12:10:28;;;;;;;36.90;23.83;;;;;;;26.98;100.00;94989.00;4945725;28;20038;-89
2022/05/26 12:13:43;;;;;;;44.20;25.60;;;;;;;25.29;100.00;94982.44;4945306;28;20327;-89
2022/05/26 12:16:18;;;;;;;42.95;25.38;;;;;;;25.46;100.00;94981.28;4949157;28;20031;-89